Time;durP1;ratioP1;P1;durP2;ratioP2;P2;SDS_P1;SDS_P2;PMS_P1;PMS_P2;Temp;Humidity;BMP_temperature;BMP_pressure;BME280_temperature;BME280_humidity;BME280_pressure;Samples;Min_cycle;Max_cycle;Signal;HPM_P1;HPM_P2
2021/11/08 00:00:52;;;;;;;8.63;4.20;;;;;;;;;;5034748;28;20136;-64
2021/11/08 00:03:26;;;;;;;7.57;4.10;;;;;;;;;;5030848;28;20053;-65
2021/11/08 00:05:54;;;;;;;7.95;4.13;;;;;;;;;;5031377;28;20132;-63
2021/11/08 00:08:23;;;;;;;7.05;3.90;;;;;;;;;;5031279;28;20080;-64
2021/11/08 00:10:51;;;;;;;7.18;3.92;;;;;;;;;;5035172;28;20049;-64
2021/11/08 00:13:20;;;;;;;10.18;4.18;;;;;;;;;;5034857;28;20073;-64
2021/11/08 00:15:57;;;;;;;9.95;4.85;;;;;;;;;;5047076;28;20460;-63
2021/11/08 00:18:32;;;;;;;10.43;4.53;;;;;;;;;;5042927;28;20187;-64
2021/11/08 00:21:00;;;;;;;;;;;;;;;;;;5013300;28;20132;-64
2021/11/08 00:23:29;;;;;;;10.00;3.92;;;;;;;;;;5029714;28;19982;-63
2021/11/08 00:26:01;;;;;;;7.22;4.15;;;;;;;;;;5031143;28;20045;-63
2021/11/08 00:28:30;;;;;;;8.98;4.50;;;;;;;;;;5029089;28;20461;-63
2021/11/08 00:30:58;;;;;;;9.07;4.88;;;;;;;;;;5012846;28;20104;-64
2021/11/08 00:33:28;;;;;;;6.35;3.53;;;;;;;;;;5026512;28;20561;-63
2021/11/08 00:35:58;;;;;;;8.90;4.43;;;;;;;;;;5029924;28;20501;-64
2021/11/08 00:38:26;;;;;;;10.80;4.68;;;;;;;;;;5025753;28;20052;-64
2021/11/08 00:40:56;;;;;;;7.50;4.07;;;;;;;;;;5015893;28;20045;-64
2021/11/08 00:43:24;;;;;;;10.50;4.53;;;;;;;;;;5009339;28;20057;-64
2021/11/08 00:45:52;;;;;;;10.23;4.43;;;;;;;;;;5009007;28;20142;-64
2021/11/08 00:48:23;;;;;;;7.68;3.70;;;;;;;;;;5008423;28;20042;-64
2021/11/08 00:50:54;;;;;;;10.43;4.85;;;;;;;;;;5010591;28;20164;-63
2021/11/08 00:53:22;;;;;;;8.20;4.18;;;;;;;;;;5023445;28;20053;-64
2021/11/08 00:55:52;;;;;;;10.45;4.55;;;;;;;;;;5030594;28;20462;-64
2021/11/08 00:58:24;;;;;;;9.75;4.55;;;;;;;;;;5035063;28;20552;-65
2021/11/08 01:00:52;;;;;;;9.55;4.18;;;;;;;;;;5043615;28;20085;-64
2021/11/08 01:03:22;;;;;;;11.90;4.72;;;;;;;;;;5029113;28;20044;-64
2021/11/08 01:05:50;;;;;;;10.65;4.57;;;;;;;;;;5030134;28;20132;-64
2021/11/08 01:08:20;;;;;;;11.82;4.82;;;;;;;;;;5034078;28;20135;-64
2021/11/08 01:10:49;;;;;;;9.13;4.57;;;;;;;;;;5032983;28;20140;-64
2021/11/08 01:13:17;;;;;;;10.40;5.00;;;;;;;;;;5029526;28;20053;-64
2021/11/08 01:15:45;;;;;;;10.27;4.95;;;;;;;;;;5030553;28;20041;-63
2021/11/08 01:18:13;;;;;;;9.25;4.82;;;;;;;;;;5033634;28;20405;-64
2021/11/08 01:20:46;;;;;;;7.85;4.95;;;;;;;;;;5030272;28;20096;-65
2021/11/08 01:23:15;;;;;;;12.90;5.80;;;;;;;;;;5029780;28;20468;-64
2021/11/08 01:25:51;;;;;;;9.50;5.05;;;;;;;;;;5029444;28;20156;-64
2021/11/08 01:28:20;;;;;;;11.23;5.28;;;;;;;;;;5027521;28;20162;-64
2021/11/08 01:30:48;;;;;;;11.10;4.80;;;;;;;;;;5028749;28;20382;-64
2021/11/08 01:33:18;;;;;;;10.73;5.05;;;;;;;;;;5029093;28;20053;-63
2021/11/08 01:35:58;;;;;;;10.18;5.13;;;;;;;;;;5029359;28;20148;-64
2021/11/08 01:38:36;;;;;;;9.35;4.53;;;;;;;;;;5028254;28;20080;-63
2021/11/08 01:41:06;;;;;;;11.30;5.60;;;;;;;;;;5028863;28;20140;-64
2021/11/08 01:43:34;;;;;;;9.52;5.03;;;;;;;;;;5029994;28;20046;-64
2021/11/08 01:46:02;;;;;;;10.93;4.82;;;;;;;;;;5025785;28;20132;-64
2021/11/08 01:48:31;;;;;;;9.80;4.80;;;;;;;;;;5026402;28;20042;-64
2021/11/08 01:50:59;;;;;;;9.45;5.32;;;;;;;;;;5037041;28;20128;-64
2021/11/08 01:53:40;;;;;;;11.40;5.00;;;;;;;;;;656091;28;10002917;-63
2021/11/08 01:56:09;;;;;;;12.15;5.50;;;;;;;;;;4998638;28;20422;-64
2021/11/08 01:58:39;;;;;;;7.72;4.15;;;;;;;;;;5009084;28;20088;-64
2021/11/08 02:01:07;;;;;;;11.00;4.75;;;;;;;;;;5009230;28;20124;-64
2021/11/08 02:03:35;;;;;;;8.02;4.18;;;;;;;;;;5005264;28;20141;-63
2021/11/08 02:06:04;;;;;;;12.05;5.60;;;;;;;;;;5011283;28;20058;-65
2021/11/08 02:08:33;;;;;;;10.13;4.20;;;;;;;;;;5012225;28;20486;-64
2021/11/08 02:11:01;;;;;;;9.38;4.50;;;;;;;;;;5013582;28;20056;-65
2021/11/08 02:13:31;;;;;;;10.73;4.70;;;;;;;;;;5011610;28;20073;-64
2021/11/08 02:16:00;;;;;;;11.93;4.32;;;;;;;;;;5012547;28;20049;-64
2021/11/08 02:18:28;;;;;;;10.25;5.13;;;;;;;;;;5012800;28;20088;-63
2021/11/08 02:21:01;;;;;;;9.77;4.32;;;;;;;;;;5012958;28;20054;-64
2021/11/08 02:23:30;;;;;;;11.40;5.65;;;;;;;;;;5010426;28;20096;-64
2021/11/08 02:26:03;;;;;;;10.95;4.90;;;;;;;;;;5013685;28;20042;-64
2021/11/08 02:28:31;;;;;;;9.60;4.95;;;;;;;;;;5012408;28;20124;-64
2021/11/08 02:31:00;;;;;;;8.38;4.75;;;;;;;;;;5011733;28;20050;-63
2021/11/08 02:33:29;;;;;;;9.10;4.65;;;;;;;;;;5010571;28;20127;-64
2021/11/08 02:35:59;;;;;;;8.40;4.60;;;;;;;;;;5010368;28;20305;-64
2021/11/08 02:38:28;;;;;;;10.35;4.72;;;;;;;;;;5012607;28;20144;-64
2021/11/08 02:40:58;;;;;;;9.45;4.07;;;;;;;;;;5012425;28;20585;-65
2021/11/08 02:43:27;;;;;;;11.30;5.18;;;;;;;;;;5021722;28;20046;-63
2021/11/08 02:46:00;;;;;;;10.68;4.13;;;;;;;;;;5025684;28;20041;-63
2021/11/08 02:48:29;;;;;;;11.23;5.03;;;;;;;;;;5027000;28;20042;-64
2021/11/08 02:51:06;;;;;;;10.35;4.95;;;;;;;;;;5031638;28;20133;-64
2021/11/08 02:53:35;;;;;;;12.55;5.47;;;;;;;;;;5029883;28;20088;-63
2021/11/08 02:56:06;;;;;;;9.70;5.22;;;;;;;;;;5023463;28;20054;-65
2021/11/08 02:58:34;;;;;;;10.88;6.03;;;;;;;;;;5024268;28;20049;-64
2021/11/08 03:01:02;;;;;;;11.63;6.00;;;;;;;;;;5032021;28;20156;-64
2021/11/08 03:03:35;;;;;;;12.18;5.15;;;;;;;;;;5026360;28;20128;-64
2021/11/08 03:06:12;;;;;;;10.82;5.75;;;;;;;;;;5032087;28;20109;-64
2021/11/08 03:08:40;;;;;;;11.02;5.45;;;;;;;;;;5031225;28;20448;-64
2021/11/08 03:11:08;;;;;;;12.00;4.90;;;;;;;;;;5031655;28;20079;-64
2021/11/08 03:13:39;;;;;;;13.15;4.72;;;;;;;;;;5030564;28;20088;-64
2021/11/08 03:16:17;;;;;;;12.93;5.15;;;;;;;;;;5031954;28;20108;-65
2021/11/08 03:18:52;;;;;;;11.43;5.35;;;;;;;;;;5031056;28;20492;-64
2021/11/08 03:21:22;;;;;;;12.07;5.10;;;;;;;;;;5028140;28;20121;-64
2021/11/08 03:23:54;;;;;;;10.30;5.18;;;;;;;;;;5029269;28;20135;-64
2021/11/08 03:26:37;;;;;;;9.60;4.45;;;;;;;;;;5031290;28;20492;-64
2021/11/08 03:29:07;;;;;;;13.50;5.95;;;;;;;;;;5031611;28;20067;-64
2021/11/08 03:31:36;;;;;;;8.57;4.28;;;;;;;;;;5026992;28;20501;-64
2021/11/08 03:34:07;;;;;;;13.43;5.07;;;;;;;;;;5029919;28;20061;-64
2021/11/08 03:36:37;;;;;;;13.55;5.15;;;;;;;;;;5027355;28;20046;-64
2021/11/08 03:39:06;;;;;;;9.70;5.28;;;;;;;;;;5030123;28;20100;-64
2021/11/08 03:41:34;;;;;;;10.75;4.57;;;;;;;;;;5024279;28;20042;-64
2021/11/08 03:44:03;;;;;;;10.57;5.07;;;;;;;;;;5026988;28;20240;-63
2021/11/08 03:46:32;;;;;;;11.90;5.50;;;;;;;;;;5031196;28;20049;-64
2021/11/08 03:49:00;;;;;;;9.65;4.47;;;;;;;;;;5031572;28;20144;-64
2021/11/08 03:51:28;;;;;;;9.48;5.43;;;;;;;;;;5030990;28;20076;-63
2021/11/08 03:53:58;;;;;;;10.45;5.10;;;;;;;;;;5030388;28;20136;-64
2021/11/08 03:56:27;;;;;;;10.13;4.85;;;;;;;;;;5030679;28;20083;-64
2021/11/08 03:58:55;;;;;;;10.52;5.05;;;;;;;;;;5030040;28;20585;-64
2021/11/08 04:01:23;;;;;;;9.55;4.68;;;;;;;;;;5030591;28;20073;-64
2021/11/08 04:03:52;;;;;;;9.32;4.53;;;;;;;;;;5029732;28;20054;-64
2021/11/08 04:06:20;;;;;;;11.85;4.75;;;;;;;;;;5030902;28;20136;-64
2021/11/08 04:08:48;;;;;;;11.32;4.95;;;;;;;;;;5030544;28;20136;-63
2021/11/08 04:11:18;;;;;;;11.38;4.88;;;;;;;;;;5031277;28;20119;-63
2021/11/08 04:13:46;;;;;;;8.82;4.75;;;;;;;;;;5027296;28;20053;-64
2021/11/08 04:16:17;;;;;;;9.18;4.63;;;;;;;;;;5030503;28;20092;-64
2021/11/08 04:18:49;;;;;;;11.85;4.90;;;;;;;;;;5030293;28;20132;-64
2021/11/08 04:21:18;;;;;;;9.77;5.15;;;;;;;;;;5030676;28;20171;-64
2021/11/08 04:23:46;;;;;;;12.80;4.47;;;;;;;;;;5029256;28;20595;-64
2021/11/08 04:26:18;;;;;;;9.27;4.25;;;;;;;;;;5030565;28;20049;-63
2021/11/08 04:28:52;;;;;;;6.05;3.65;;;;;;;;;;5029339;28;20144;-65
2021/11/08 04:31:21;;;;;;;8.38;4.43;;;;;;;;;;5021710;28;20401;-64
2021/11/08 04:33:51;;;;;;;8.10;4.25;;;;;;;;;;5029649;28;20143;-63
2021/11/08 04:39:14;;;;;;;7.60;3.90;;;;;;;;;;5026037;28;20462;-63
2021/11/08 04:41:49;;;;;;;11.38;4.07;;;;;;;;;;5030286;28;20045;-64
2021/11/08 04:47:54;;;;;;;7.28;4.03;;;;;;;;;;4987887;28;20056;-64
2021/11/08 04:50:29;;;;;;;8.98;4.20;;;;;;;;;;5029240;28;20045;-64
2021/11/08 05:32:14;;;;;;;5.72;3.05;;;;;;;;;;4985187;28;20053;-64
2021/11/08 05:34:44;;;;;;;9.35;4.03;;;;;;;;;;4993662;28;20047;-66
2021/11/08 05:37:14;;;;;;;7.50;3.45;;;;;;;;;;5007499;28;20049;-65
2021/11/08 05:39:48;;;;;;;7.97;3.85;;;;;;;;;;5028439;28;20041;-64
2021/11/08 05:42:17;;;;;;;7.47;4.60;;;;;;;;;;5031330;28;20548;-64
2021/11/08 05:44:45;;;;;;;6.10;3.70;;;;;;;;;;5031990;28;20057;-64
2021/11/08 05:47:13;;;;;;;7.80;3.63;;;;;;;;;;5031416;28;20132;-64
2021/11/08 05:49:44;;;;;;;11.32;4.28;;;;;;;;;;5033824;28;20137;-64
2021/11/08 05:52:13;;;;;;;8.13;3.10;;;;;;;;;;5032870;28;20225;-63
2021/11/08 05:54:42;;;;;;;10.10;3.88;;;;;;;;;;5032949;28;20049;-64
2021/11/08 06:00:14;;;;;;;7.45;3.58;;;;;;;;;;5024038;28;20057;-63
2021/11/08 06:49:46;;;;;;;9.90;3.42;;;;;;;;;;5030130;28;20057;-65
2021/11/08 06:52:15;;;;;;;6.95;3.60;;;;;;;;;;5028767;28;20041;-65
2021/11/08 06:54:47;;;;;;;8.50;3.38;;;;;;;;;;5029126;28;20547;-66
2021/11/08 06:57:19;;;;;;;7.97;3.70;;;;;;;;;;5031881;28;20049;-65
2021/11/08 06:59:49;;;;;;;6.32;3.85;;;;;;;;;;5033842;28;20517;-65
2021/11/08 07:02:19;;;;;;;7.05;3.90;;;;;;;;;;5029129;28;20179;-65
2021/11/08 07:04:48;;;;;;;8.65;3.70;;;;;;;;;;5028082;28;20145;-66
2021/11/08 07:07:16;;;;;;;7.18;3.30;;;;;;;;;;5033289;28;20120;-65
2021/11/08 07:09:46;;;;;;;7.38;3.38;;;;;;;;;;5028049;28;20075;-65
2021/11/08 07:12:15;;;;;;;6.32;3.53;;;;;;;;;;5028583;28;20049;-66
2021/11/08 07:14:44;;;;;;;8.45;3.72;;;;;;;;;;5029160;28;20496;-65
2021/11/08 07:17:12;;;;;;;6.97;3.97;;;;;;;;;;5028337;28;20537;-65
2021/11/08 07:19:41;;;;;;;7.28;3.80;;;;;;;;;;5023476;28;20715;-65
2021/11/08 07:22:09;;;;;;;9.18;4.35;;;;;;;;;;5027063;28;20131;-65
2021/11/08 07:24:38;;;;;;;9.85;4.35;;;;;;;;;;5033886;28;20132;-65
2021/11/08 07:27:08;;;;;;;9.10;4.22;;;;;;;;;;5027420;28;20107;-65
2021/11/08 07:29:37;;;;;;;9.43;4.15;;;;;;;;;;5027404;28;20505;-66
2021/11/08 07:32:06;;;;;;;9.05;3.60;;;;;;;;;;5027709;28;20049;-66
2021/11/08 07:34:34;;;;;;;10.18;4.90;;;;;;;;;;5014161;28;20134;-65
2021/11/08 07:37:03;;;;;;;7.18;4.13;;;;;;;;;;5021161;28;20468;-65
2021/11/08 07:39:31;;;;;;;8.60;4.13;;;;;;;;;;5025201;28;20103;-65
2021/11/08 07:42:00;;;;;;;6.95;3.65;;;;;;;;;;5029055;28;20481;-67
2021/11/08 07:44:30;;;;;;;9.15;3.60;;;;;;;;;;5028922;28;20061;-66
2021/11/08 07:46:58;;;;;;;8.77;3.45;;;;;;;;;;5028959;28;20136;-66
2021/11/08 07:49:26;;;;;;;12.65;4.03;;;;;;;;;;5028416;28;20132;-67
2021/11/08 07:51:55;;;;;;;13.10;4.57;;;;;;;;;;5030419;28;20063;-65
2021/11/08 07:54:24;;;;;;;7.38;4.03;;;;;;;;;;5023270;28;20092;-66
2021/11/08 07:56:53;;;;;;;11.63;3.63;;;;;;;;;;5029208;28;20049;-65
2021/11/08 07:59:21;;;;;;;6.20;2.70;;;;;;;;;;5029595;28;20050;-66
2021/11/08 08:01:51;;;;;;;5.30;3.17;;;;;;;;;;5023512;28;21702;-66
2021/11/08 08:04:24;;;;;;;7.93;3.47;;;;;;;;;;5027190;28;20485;-66
2021/11/08 08:06:53;;;;;;;12.05;4.45;;;;;;;;;;5027702;28;20073;-66
2021/11/08 08:09:22;;;;;;;8.20;3.30;;;;;;;;;;5029941;28;20132;-65
2021/11/08 08:11:51;;;;;;;16.50;3.78;;;;;;;;;;5026942;28;20119;-65
2021/11/08 08:14:20;;;;;;;14.48;3.60;;;;;;;;;;5025100;28;20053;-66
2021/11/08 08:16:48;;;;;;;12.95;3.65;;;;;;;;;;5029853;28;20204;-66
2021/11/08 08:19:18;;;;;;;6.68;3.38;;;;;;;;;;5029194;28;20060;-66
2021/11/08 08:21:46;;;;;;;8.57;3.17;;;;;;;;;;5030387;28;20057;-65
2021/11/08 08:24:15;;;;;;;9.77;3.33;;;;;;;;;;5030672;28;20072;-65
2021/11/08 08:26:44;;;;;;;6.15;2.80;;;;;;;;;;5020707;28;20045;-65
2021/11/08 08:29:14;;;;;;;12.32;3.17;;;;;;;;;;5023966;28;20087;-66
2021/11/08 08:31:45;;;;;;;6.20;2.75;;;;;;;;;;5026899;28;20059;-65
2021/11/08 08:34:14;;;;;;;11.30;3.03;;;;;;;;;;5028216;28;20048;-65
2021/11/08 08:36:44;;;;;;;8.35;2.42;;;;;;;;;;5026828;28;20044;-65
2021/11/08 08:39:13;;;;;;;8.70;2.85;;;;;;;;;;5015252;28;20515;-66
2021/11/08 08:41:42;;;;;;;10.20;3.20;;;;;;;;;;5016845;28;20436;-66
2021/11/08 08:44:13;;;;;;;5.25;2.38;;;;;;;;;;5024684;28;20049;-66
2021/11/08 08:46:42;;;;;;;8.93;2.17;;;;;;;;;;5028823;28;20108;-63
2021/11/08 08:49:12;;;;;;;9.02;2.40;;;;;;;;;;5029123;28;20042;-65
2021/11/08 08:51:42;;;;;;;7.35;2.05;;;;;;;;;;5028408;28;20080;-65
2021/11/08 08:54:12;;;;;;;5.93;1.83;;;;;;;;;;5028111;28;20088;-65
2021/11/08 08:56:41;;;;;;;8.30;1.90;;;;;;;;;;5028773;28;20067;-66
2021/11/08 08:59:10;;;;;;;10.88;1.92;;;;;;;;;;5023748;28;20041;-66
2021/11/08 09:01:38;;;;;;;10.02;1.83;;;;;;;;;;5028996;28;20517;-66
2021/11/08 09:04:07;;;;;;;9.60;2.00;;;;;;;;;;5027043;28;20084;-65
2021/11/08 09:06:35;;;;;;;10.75;2.20;;;;;;;;;;5029694;28;20049;-67
2021/11/08 09:09:05;;;;;;;8.23;1.55;;;;;;;;;;5029416;28;20057;-65
2021/11/08 09:11:35;;;;;;;5.22;1.58;;;;;;;;;;5028072;28;20053;-66
2021/11/08 09:14:04;;;;;;;11.65;2.10;;;;;;;;;;5025808;28;20232;-67
2021/11/08 09:16:34;;;;;;;16.40;1.77;;;;;;;;;;5028930;28;20073;-66
2021/11/08 09:19:02;;;;;;;4.25;1.50;;;;;;;;;;5023471;28;20360;-65
2021/11/08 09:21:32;;;;;;;9.05;2.30;;;;;;;;;;5028439;28;20057;-66
2021/11/08 09:24:02;;;;;;;6.68;1.45;;;;;;;;;;5027050;28;20099;-66
2021/11/08 09:26:35;;;;;;;6.25;1.90;;;;;;;;;;5028592;28;20214;-66
2021/11/08 09:29:06;;;;;;;6.35;2.00;;;;;;;;;;5028371;28;20049;-65
2021/11/08 09:31:35;;;;;;;8.20;1.42;;;;;;;;;;5028592;28;20084;-64
2021/11/08 09:34:08;;;;;;;9.77;1.80;;;;;;;;;;5024270;28;20064;-63
2021/11/08 09:36:37;;;;;;;10.85;2.20;;;;;;;;;;5024892;28;20122;-63
2021/11/08 09:39:09;;;;;;;7.57;2.03;;;;;;;;;;5028413;28;20099;-64
2021/11/08 09:41:39;;;;;;;6.47;1.33;;;;;;;;;;5026539;28;20056;-64
2021/11/08 09:44:09;;;;;;;5.47;1.50;;;;;;;;;;5025349;28;20053;-64
2021/11/08 09:46:38;;;;;;;5.45;1.50;;;;;;;;;;5029200;28;20558;-64
2021/11/08 09:49:07;;;;;;;9.30;1.92;;;;;;;;;;5028043;28;20081;-65
2021/11/08 09:51:37;;;;;;;4.18;1.58;;;;;;;;;;5020013;28;20076;-64
2021/11/08 09:54:06;;;;;;;13.15;2.35;;;;;;;;;;5026424;28;20046;-64
2021/11/08 09:56:35;;;;;;;7.45;1.60;;;;;;;;;;5027484;28;20057;-64
2021/11/08 09:59:04;;;;;;;8.45;1.48;;;;;;;;;;5027062;28;20053;-64
2021/11/08 10:01:47;;;;;;;8.65;1.38;;;;;;;;;;5027174;28;20419;-64
2021/11/08 10:04:16;;;;;;;7.20;2.03;;;;;;;;;;5027828;28;20572;-64
2021/11/08 10:06:45;;;;;;;5.68;1.60;;;;;;;;;;5026900;28;20170;-65
2021/11/08 10:09:18;;;;;;;6.95;1.80;;;;;;;;;;5024000;28;20049;-65
2021/11/08 10:11:47;;;;;;;5.55;1.48;;;;;;;;;;5028243;28;20053;-64
2021/11/08 10:14:17;;;;;;;7.40;1.75;;;;;;;;;;5023863;28;20133;-64
2021/11/08 10:16:48;;;;;;;11.05;2.20;;;;;;;;;;5026977;28;20559;-64
2021/11/08 10:19:22;;;;;;;10.57;1.83;;;;;;;;;;5026500;28;20072;-64
2021/11/08 10:21:52;;;;;;;7.25;2.22;;;;;;;;;;5028190;28;20064;-65
2021/11/08 10:24:22;;;;;;;9.88;1.48;;;;;;;;;;5025770;28;20045;-65
2021/11/08 10:26:52;;;;;;;3.42;1.60;;;;;;;;;;5024121;28;20052;-64
2021/11/08 10:29:23;;;;;;;9.00;1.90;;;;;;;;;;5029318;28;20041;-65
2021/11/08 10:32:09;;;;;;;10.73;2.38;;;;;;;;;;5030228;28;20056;-64
2021/11/08 10:34:46;;;;;;;8.05;1.75;;;;;;;;;;5019292;28;20046;-64
2021/11/08 10:37:22;;;;;;;3.45;1.30;;;;;;;;;;5032932;28;20049;-64
2021/11/08 10:39:51;;;;;;;5.20;2.42;;;;;;;;;;5032997;28;20092;-64
2021/11/08 10:42:22;;;;;;;6.38;2.70;;;;;;;;;;5033054;28;20048;-65
2021/11/08 10:44:50;;;;;;;8.80;2.10;;;;;;;;;;5027111;28;20560;-65
2021/11/08 10:47:21;;;;;;;7.20;2.10;;;;;;;;;;5033399;28;20053;-64
2021/11/08 10:49:50;;;;;;;10.18;2.30;;;;;;;;;;5032544;28;20057;-64
2021/11/08 10:52:19;;;;;;;7.90;2.33;;;;;;;;;;5031791;28;20175;-64
2021/11/08 10:54:53;;;;;;;6.97;2.20;;;;;;;;;;5022239;28;20085;-64
2021/11/08 10:57:24;;;;;;;8.45;1.98;;;;;;;;;;5031672;28;20548;-64
2021/11/08 10:59:53;;;;;;;11.88;2.60;;;;;;;;;;5031987;28;20053;-65
2021/11/08 11:02:24;;;;;;;10.98;1.98;;;;;;;;;;5028309;28;20131;-64
2021/11/08 11:04:56;;;;;;;5.07;1.67;;;;;;;;;;5032837;28;20057;-64
2021/11/08 11:07:27;;;;;;;8.65;2.30;;;;;;;;;;5031398;28;20119;-64
2021/11/08 11:09:58;;;;;;;5.13;1.80;;;;;;;;;;5031240;28;20060;-64
2021/11/08 11:12:29;;;;;;;7.97;1.77;;;;;;;;;;5027367;28;20386;-65
2021/11/08 11:14:59;;;;;;;4.57;2.20;;;;;;;;;;5032125;28;20076;-64
2021/11/08 11:17:30;;;;;;;6.38;1.85;;;;;;;;;;5032706;28;20053;-65
2021/11/08 11:20:05;;;;;;;10.23;2.25;;;;;;;;;;5032324;28;20061;-64
2021/11/08 11:22:34;;;;;;;5.38;2.10;;;;;;;;;;5031264;28;20120;-64
2021/11/08 11:25:07;;;;;;;3.65;1.63;;;;;;;;;;5032107;28;20508;-65
2021/11/08 11:27:37;;;;;;;8.52;3.10;;;;;;;;;;5028187;28;20046;-64
2021/11/08 11:30:11;;;;;;;8.25;2.03;;;;;;;;;;5032514;28;20527;-64
2021/11/08 11:32:41;;;;;;;5.00;2.13;;;;;;;;;;5030137;28;20104;-64
2021/11/08 11:35:15;;;;;;;12.05;2.30;;;;;;;;;;5025352;28;20137;-64
2021/11/08 11:37:53;;;;;;;6.28;2.33;;;;;;;;;;5031576;28;20100;-65
2021/11/08 11:40:21;;;;;;;9.13;2.00;;;;;;;;;;5027323;28;20547;-64
2021/11/08 11:42:51;;;;;;;7.57;2.17;;;;;;;;;;5025724;28;20064;-65
2021/11/08 11:45:20;;;;;;;9.23;2.40;;;;;;;;;;5016021;28;20041;-65
2021/11/08 11:47:58;;;;;;;10.25;2.60;;;;;;;;;;5029193;28;20045;-64
2021/11/08 11:50:27;;;;;;;4.93;1.83;;;;;;;;;;5031372;28;20133;-65
2021/11/08 11:52:56;;;;;;;3.70;1.67;;;;;;;;;;5029993;28;20463;-64
2021/11/08 11:55:24;;;;;;;11.52;1.77;;;;;;;;;;5026706;28;20057;-65
2021/11/08 11:57:55;;;;;;;4.50;1.77;;;;;;;;;;5029307;28;20115;-64
2021/11/08 12:00:24;;;;;;;8.52;1.90;;;;;;;;;;5029958;28;20049;-64
2021/11/08 12:02:53;;;;;;;10.77;1.88;;;;;;;;;;5030382;28;20136;-64
2021/11/08 12:05:23;;;;;;;9.90;1.90;;;;;;;;;;5027184;28;20053;-64
2021/11/08 12:07:52;;;;;;;10.52;1.75;;;;;;;;;;5025035;28;20305;-64
2021/11/08 12:10:20;;;;;;;9.63;1.92;;;;;;;;;;5029310;28;20302;-64
2021/11/08 12:12:49;;;;;;;6.80;1.73;;;;;;;;;;5025840;28;20070;-64
2021/11/08 12:15:25;;;;;;;11.52;1.88;;;;;;;;;;5029677;28;20046;-64
2021/11/08 12:17:55;;;;;;;6.35;1.70;;;;;;;;;;5024884;28;20063;-64
2021/11/08 12:20:27;;;;;;;5.65;1.98;;;;;;;;;;5028525;28;20635;-64
2021/11/08 12:22:56;;;;;;;7.35;1.90;;;;;;;;;;5025870;28;20053;-64
2021/11/08 12:25:25;;;;;;;7.25;1.58;;;;;;;;;;5033995;28;20042;-65
2021/11/08 12:27:55;;;;;;;6.97;1.98;;;;;;;;;;5023363;28;20484;-64
2021/11/08 12:30:26;;;;;;;5.28;1.75;;;;;;;;;;5027656;28;20136;-65
2021/11/08 12:32:56;;;;;;;11.65;1.50;;;;;;;;;;5028068;28;20084;-64
2021/11/08 12:35:31;;;;;;;10.02;2.20;;;;;;;;;;5027714;28;20399;-64
2021/11/08 12:37:59;;;;;;;11.07;1.80;;;;;;;;;;5024522;28;20112;-64
2021/11/08 12:40:31;;;;;;;7.43;1.55;;;;;;;;;;5027531;28;20493;-64
2021/11/08 12:43:00;;;;;;;8.85;1.52;;;;;;;;;;5028386;28;20096;-64
2021/11/08 12:45:30;;;;;;;5.22;1.52;;;;;;;;;;5027291;28;20048;-64
2021/11/08 12:48:00;;;;;;;5.63;1.55;;;;;;;;;;5024321;28;20764;-65
2021/11/08 12:50:37;;;;;;;5.70;1.85;;;;;;;;;;5029004;28;20048;-63
2021/11/08 12:53:20;;;;;;;8.38;1.65;;;;;;;;;;5028090;28;20050;-63
2021/11/08 12:55:49;;;;;;;5.22;1.50;;;;;;;;;;5027886;28;20045;-65
2021/11/08 12:58:18;;;;;;;4.03;1.42;;;;;;;;;;5024068;28;20079;-64
2021/11/08 13:00:50;;;;;;;9.15;1.77;;;;;;;;;;5026388;28;20463;-63
2021/11/08 13:03:30;;;;;;;8.93;1.52;;;;;;;;;;5025548;28;20361;-64
2021/11/08 13:06:00;;;;;;;4.72;1.17;;;;;;;;;;5029000;28;20057;-64
2021/11/08 13:08:30;;;;;;;8.95;1.88;;;;;;;;;;5026589;28;20049;-64
2021/11/08 13:11:06;;;;;;;5.03;1.33;;;;;;;;;;5024675;28;20349;-63
2021/11/08 13:13:35;;;;;;;10.15;1.52;;;;;;;;;;5026910;28;20049;-63
2021/11/08 13:16:10;;;;;;;5.57;1.33;;;;;;;;;;5027212;28;20129;-64
2021/11/08 13:18:40;;;;;;;6.03;2.17;;;;;;;;;;5018878;28;20049;-64
2021/11/08 13:21:11;;;;;;;7.05;1.77;;;;;;;;;;5027826;28;20051;-64
2021/11/08 13:23:41;;;;;;;4.50;1.55;;;;;;;;;;5022654;28;20493;-64
2021/11/08 13:26:10;;;;;;;9.30;1.52;;;;;;;;;;5027556;28;20053;-64
2021/11/08 13:28:39;;;;;;;6.40;1.50;;;;;;;;;;5028090;28;20465;-64
2021/11/08 13:31:08;;;;;;;6.65;1.55;;;;;;;;;;5025224;28;20049;-64
2021/11/08 13:33:40;;;;;;;5.97;1.30;;;;;;;;;;5024546;28;20060;-64
2021/11/08 13:36:13;;;;;;;5.38;1.60;;;;;;;;;;5027154;28;20548;-64
2021/11/08 13:38:43;;;;;;;8.63;1.88;;;;;;;;;;5023920;28;20188;-64
2021/11/08 13:41:16;;;;;;;2.90;1.30;;;;;;;;;;5027376;28;20144;-63
2021/11/08 13:43:45;;;;;;;9.73;1.35;;;;;;;;;;5027463;28;20525;-64
2021/11/08 13:46:15;;;;;;;8.25;2.00;;;;;;;;;;5026558;28;20773;-64
2021/11/08 13:48:46;;;;;;;3.72;1.20;;;;;;;;;;5024757;28;20058;-64
2021/11/08 13:51:23;;;;;;;4.22;1.50;;;;;;;;;;5024097;28;20317;-64
2021/11/08 13:53:53;;;;;;;5.82;1.50;;;;;;;;;;5025985;28;20096;-64
2021/11/08 13:56:23;;;;;;;5.35;2.17;;;;;;;;;;5017458;28;20129;-65
2021/11/08 13:58:52;;;;;;;5.93;1.27;;;;;;;;;;5023540;28;20060;-64
2021/11/08 14:01:21;;;;;;;6.75;1.35;;;;;;;;;;5026549;28;20398;-64
2021/11/08 14:03:52;;;;;;;8.73;1.38;;;;;;;;;;5031547;28;20049;-64
2021/11/08 14:06:29;;;;;;;5.30;1.15;;;;;;;;;;5031003;28;20053;-64
2021/11/08 14:08:58;;;;;;;5.95;1.83;;;;;;;;;;5029616;28;20504;-64
2021/11/08 14:11:28;;;;;;;5.28;1.20;;;;;;;;;;5028362;28;20046;-65
2021/11/08 14:14:02;;;;;;;6.93;1.40;;;;;;;;;;5027530;28;20054;-65
2021/11/08 14:16:30;;;;;;;12.52;2.33;;;;;;;;;;5031476;28;20053;-65
2021/11/08 14:18:59;;;;;;;5.45;1.48;;;;;;;;;;5030301;28;20052;-64
2021/11/08 14:21:31;;;;;;;10.00;1.95;;;;;;;;;;5029032;28;20103;-64
2021/11/08 14:24:00;;;;;;;5.45;1.42;;;;;;;;;;5029776;28;20054;-64
2021/11/08 14:26:29;;;;;;;5.53;1.65;;;;;;;;;;5023591;28;20045;-65
2021/11/08 14:28:59;;;;;;;4.75;1.30;;;;;;;;;;5025621;28;20068;-64
2021/11/08 14:31:29;;;;;;;2.60;1.17;;;;;;;;;;5032752;28;20054;-65
2021/11/08 14:33:59;;;;;;;5.15;1.52;;;;;;;;;;5030024;28;20500;-64
2021/11/08 14:36:32;;;;;;;2.58;1.13;;;;;;;;;;5027117;28;20042;-64
2021/11/08 14:39:04;;;;;;;6.38;1.35;;;;;;;;;;5023974;28;20815;-64
2021/11/08 14:41:33;;;;;;;8.02;1.20;;;;;;;;;;5029801;28;20091;-64
2021/11/08 14:44:03;;;;;;;7.75;1.40;;;;;;;;;;5028766;28;20824;-64
2021/11/08 14:46:35;;;;;;;4.32;1.67;;;;;;;;;;5022404;28;20057;-63
2021/11/08 14:49:18;;;;;;;2.80;0.98;;;;;;;;;;5029133;28;20674;-64
2021/11/08 14:51:51;;;;;;;7.13;1.73;;;;;;;;;;5029151;28;20045;-64
2021/11/08 14:54:19;;;;;;;3.88;1.25;;;;;;;;;;5026796;28;20049;-64
2021/11/08 14:56:52;;;;;;;7.30;1.13;;;;;;;;;;5027911;28;20045;-65
2021/11/08 14:59:26;;;;;;;6.25;1.40;;;;;;;;;;5025942;28;20103;-64
2021/11/08 15:02:02;;;;;;;3.53;0.93;;;;;;;;;;5024109;28;20103;-64
2021/11/08 15:04:31;;;;;;;6.13;1.50;;;;;;;;;;5025299;28;20803;-64
2021/11/08 15:07:03;;;;;;;4.03;1.05;;;;;;;;;;5030617;28;20133;-64
2021/11/08 15:09:38;;;;;;;3.58;1.00;;;;;;;;;;5028755;28;20132;-64
2021/11/08 15:12:14;;;;;;;2.90;1.33;;;;;;;;;;5024764;28;20064;-64
2021/11/08 15:14:47;;;;;;;10.13;1.30;;;;;;;;;;5028407;28;20350;-64
2021/11/08 15:17:15;;;;;;;3.90;1.05;;;;;;;;;;5017512;28;20343;-64
2021/11/08 15:19:47;;;;;;;2.92;1.17;;;;;;;;;;5028850;28;20726;-64
2021/11/08 15:22:17;;;;;;;8.07;1.80;;;;;;;;;;5024343;28;21366;-64
2021/11/08 15:24:45;;;;;;;2.53;1.10;;;;;;;;;;5025998;28;20512;-65
2021/11/08 15:27:14;;;;;;;6.82;1.63;;;;;;;;;;5032138;28;20046;-64
2021/11/08 15:29:43;;;;;;;3.20;0.93;;;;;;;;;;5028300;28;20073;-64
2021/11/08 15:32:14;;;;;;;4.55;1.40;;;;;;;;;;5027445;28;20479;-63
2021/11/08 15:34:44;;;;;;;3.80;1.17;;;;;;;;;;5026003;28;20199;-65
2021/11/08 15:37:22;;;;;;;3.30;1.25;;;;;;;;;;5025721;28;20408;-64
2021/11/08 15:39:52;;;;;;;7.20;1.60;;;;;;;;;;5027837;28;20140;-64
2021/11/08 15:42:20;;;;;;;6.95;1.33;;;;;;;;;;5028822;28;20046;-64
2021/11/08 15:44:49;;;;;;;4.38;1.30;;;;;;;;;;5028640;28;20099;-64
2021/11/08 15:47:17;;;;;;;6.90;1.40;;;;;;;;;;5035470;28;20101;-67
2021/11/08 15:49:46;;;;;;;5.95;1.52;;;;;;;;;;5028057;28;20041;-63
2021/11/08 15:52:14;;;;;;;4.38;1.42;;;;;;;;;;5024317;28;20057;-64
2021/11/08 15:54:42;;;;;;;6.18;1.60;;;;;;;;;;5027569;28;20053;-64
2021/11/08 15:57:12;;;;;;;2.90;1.30;;;;;;;;;;5028889;28;20049;-64
2021/11/08 15:59:42;;;;;;;4.65;1.70;;;;;;;;;;5027939;28;20053;-64
2021/11/08 16:02:10;;;;;;;4.47;1.48;;;;;;;;;;5026394;28;20479;-64
2021/11/08 16:04:39;;;;;;;5.28;1.30;;;;;;;;;;5021147;28;20045;-64
2021/11/08 16:07:08;;;;;;;5.35;1.73;;;;;;;;;;5028590;28;20057;-64
2021/11/08 16:09:36;;;;;;;5.63;1.42;;;;;;;;;;5027673;28;20077;-64
2021/11/08 16:12:05;;;;;;;6.53;1.25;;;;;;;;;;5022593;28;20126;-66
2021/11/08 16:14:35;;;;;;;6.60;2.05;;;;;;;;;;5027501;28;20099;-66
2021/11/08 16:17:04;;;;;;;5.10;1.23;;;;;;;;;;5021688;28;20152;-66
2021/11/08 16:19:33;;;;;;;6.18;1.80;;;;;;;;;;5026693;28;20069;-65
2021/11/08 16:22:02;;;;;;;5.65;1.73;;;;;;;;;;5027558;28;20049;-65
2021/11/08 16:24:30;;;;;;;6.30;1.73;;;;;;;;;;5007049;28;20058;-65
2021/11/08 16:26:59;;;;;;;4.07;1.42;;;;;;;;;;5005086;28;20060;-66
2021/11/08 16:29:27;;;;;;;5.03;1.27;;;;;;;;;;5008156;28;20455;-66
2021/11/08 16:32:04;;;;;;;4.57;1.95;;;;;;;;;;4993138;28;20520;-66
2021/11/08 16:34:33;;;;;;;8.13;1.98;;;;;;;;;;5013667;28;20112;-65